NORTHEAST SUFFOLK  -  Special Weather Statement Special Weather Statement        NORTHERN NASSAU  -  Special Weather Statement Special Weather Statement        NORTHWEST SUFFOLK  -  Special Weather Statement Special Weather Statement        SOUTHEAST SUFFOLK  -  Special Weather Statement Special Weather Statement        SOUTHERN NASSAU  -  Special Weather Statement Special Weather Statement        SOUTHWEST SUFFOLK  -  Special Weather Statement Special Weather Statement      

Active alerts

Northern Nassau
  Details for Northern Nassau Special Weather Statement
Southern Nassau
  Details for Southern Nassau Special Weather Statement
Northwest Suffolk
  Details for Northwest Suffolk Special Weather Statement
Southwest Suffolk
  Details for Southwest Suffolk Special Weather Statement
Northeast Suffolk
  Details for Northeast Suffolk Special Weather Statement
Southeast Suffolk
  Details for Southeast Suffolk Special Weather Statement


WXM80 ListenWXM80 Stop

You find our weather info also at:

UK Metoffice

WeatherCloud

Weather Underground

Northeastern Weather Network

AWEKAS

Citizen Weather Observer Program (CWOP)

HAMweather, WeatherForYou, PWS Weather


Weather Underground History page Text

Daily Summary for November 1, 2017 Units:  Both    English   Metric
« Previous Day
Next Day »
Daily Weekly Monthly Yearly Custom
  High: Low: Average:
Temperature: 56.3 °F /  13.5 °C 40.6 °F /  4.8 °C 49.4 °F /  9.7 °C
Dew Point: 49.1 °F /  9.5 °C 35.6 °F /  2 °C 42.3 °F /  5.7 °C
Humidity: 92 % 64 % 77 %
Wind Speed: 3.4 mph /  5.5 km/h - 0.3 mph /  0.5 km/h
Wind Gust: 9.2 mph /  14.8 km/h - -
Wind:- - South
Pressure: 30.40 in /  1029.3 hPa 30.28 in /  1025.3 hPa -
Precipitation: 0.00 in /  0 mm    
Historical Graphs
 
 
Tabular Data for November 1, 2017
Time Temperature Dew Point Pressure Wind Wind Speed Wind Gust Humidity Rainfall Rate (Hourly)
00:03 48.3 °F /  9.1 °C 36.7 °F /  2.6 °C 30.28 in /  1025.3 hPa West 1.8 mph /  2.9 km/h 3.5 mph /  5.6 km/h 64 % 0.00 in /  0 mm
00:08 48.3 °F /  9.1 °C 37.1 °F /  2.8 °C 30.29 in /  1025.6 hPa WSW 3.4 mph /  5.5 km/h 4.6 mph /  7.4 km/h 65 % 0.00 in /  0 mm
00:13 48.2 °F /  9 °C 37.0 °F /  2.8 °C 30.29 in /  1025.6 hPa WSW 2.2 mph /  3.5 km/h 3.5 mph /  5.6 km/h 65 % 0.00 in /  0 mm
00:19 48.1 °F /  8.9 °C 36.9 °F /  2.7 °C 30.29 in /  1025.6 hPa WSW 1.6 mph /  2.6 km/h 3.5 mph /  5.6 km/h 65 % 0.00 in /  0 mm
00:24 48.1 °F /  8.9 °C 36.9 °F /  2.7 °C 30.29 in /  1025.6 hPa West 0.2 mph /  0.3 km/h 3.5 mph /  5.6 km/h 65 % 0.00 in /  0 mm
00:29 48.0 °F /  8.9 °C 36.8 °F /  2.7 °C 30.30 in /  1026 hPa WSW 0.4 mph /  0.6 km/h 4.0 mph /  6.4 km/h 65 % 0.00 in /  0 mm
00:34 47.9 °F /  8.8 °C 36.3 °F /  2.4 °C 30.30 in /  1026 hPa WNW 3.2 mph /  5.1 km/h 8.1 mph /  13 km/h 64 % 0.00 in /  0 mm
00:39 47.9 °F /  8.8 °C 36.3 °F /  2.4 °C 30.30 in /  1026 hPa WNW 0.1 mph /  0.2 km/h 5.8 mph /  9.3 km/h 64 % 0.00 in /  0 mm
00:44 47.8 °F /  8.8 °C 36.6 °F /  2.6 °C 30.30 in /  1026 hPa Calm   2.3 mph /  3.7 km/h 65 % 0.00 in /  0 mm
00:49 47.7 °F /  8.7 °C 36.5 °F /  2.5 °C 30.29 in /  1025.6 hPa West 1.6 mph /  2.6 km/h 5.8 mph /  9.3 km/h 65 % 0.00 in /  0 mm
00:54 47.6 °F /  8.7 °C 36.4 °F /  2.4 °C 30.30 in /  1026 hPa WNW 1.9 mph /  3.1 km/h 9.2 mph /  14.8 km/h 65 % 0.00 in /  0 mm
00:59 47.6 °F /  8.7 °C 36.4 °F /  2.4 °C 30.29 in /  1025.6 hPa West 1.8 mph /  2.9 km/h 4.6 mph /  7.4 km/h 65 % 0.00 in /  0 mm
01:04 47.5 °F /  8.6 °C 36.3 °F /  2.4 °C 30.29 in /  1025.6 hPa WNW 0.3 mph /  0.5 km/h 3.5 mph /  5.6 km/h 65 % 0.00 in /  0 mm
01:09 47.4 °F /  8.6 °C 36.2 °F /  2.3 °C 30.30 in /  1026 hPa WNW 0.8 mph /  1.3 km/h 3.5 mph /  5.6 km/h 65 % 0.00 in /  0 mm
01:14 47.4 °F /  8.6 °C 36.2 °F /  2.3 °C 30.30 in /  1026 hPa West 0.5 mph /  0.8 km/h 4.6 mph /  7.4 km/h 65 % 0.00 in /  0 mm
01:19 47.3 °F /  8.5 °C 36.1 °F /  2.3 °C 30.30 in /  1026 hPa WNW 2.2 mph /  3.5 km/h 6.0 mph /  9.7 km/h 65 % 0.00 in /  0 mm
01:24 47.2 °F /  8.4 °C 36.0 °F /  2.2 °C 30.30 in /  1026 hPa WNW 1.3 mph /  2.1 km/h 8.0 mph /  12.9 km/h 65 % 0.00 in /  0 mm
01:29 47.1 °F /  8.4 °C 35.9 °F /  2.2 °C 30.30 in /  1026 hPa WNW 2.5 mph /  4 km/h 4.6 mph /  7.4 km/h 65 % 0.00 in /  0 mm
01:34 47.1 °F /  8.4 °C 35.9 °F /  2.2 °C 30.29 in /  1025.6 hPa NNW 1.2 mph /  1.9 km/h 3.5 mph /  5.6 km/h 65 % 0.00 in /  0 mm
01:39 47.0 °F /  8.3 °C 36.2 °F /  2.3 °C 30.30 in /  1026 hPa NW 0.5 mph /  0.8 km/h 1.2 mph /  1.9 km/h 66 % 0.00 in /  0 mm
01:44 47.0 °F /  8.3 °C 36.2 °F /  2.3 °C 30.30 in /  1026 hPa WNW 1.2 mph /  1.9 km/h 3.0 mph /  4.8 km/h 66 % 0.00 in /  0 mm
01:49 46.9 °F /  8.3 °C 36.1 °F /  2.3 °C 30.30 in /  1026 hPa WNW 1.0 mph /  1.6 km/h 1.2 mph /  1.9 km/h 66 % 0.00 in /  0 mm
01:55 46.8 °F /  8.2 °C 36.0 °F /  2.2 °C 30.30 in /  1026 hPa North 1.6 mph /  2.6 km/h 3.5 mph /  5.6 km/h 66 % 0.00 in /  0 mm
02:00 46.8 °F /  8.2 °C 36.0 °F /  2.2 °C 30.31 in /  1026.3 hPa West 1.3 mph /  2.1 km/h 3.0 mph /  4.8 km/h 66 % 0.00 in /  0 mm
02:05 46.7 °F /  8.2 °C 35.9 °F /  2.2 °C 30.32 in /  1026.6 hPa Calm   1.2 mph /  1.9 km/h 66 % 0.00 in /  0 mm
02:10 46.6 °F /  8.1 °C 35.8 °F /  2.1 °C 30.31 in /  1026.3 hPa WNW 0.2 mph /  0.3 km/h 4.6 mph /  7.4 km/h 66 % 0.00 in /  0 mm
02:15 46.5 °F /  8.1 °C 36.1 °F /  2.3 °C 30.31 in /  1026.3 hPa Calm     67 % 0.00 in /  0 mm
02:20 46.4 °F /  8 °C 36.0 °F /  2.2 °C 30.32 in /  1026.6 hPa Calm   1.2 mph /  1.9 km/h 67 % 0.00 in /  0 mm
02:25 46.4 °F /  8 °C 36.0 °F /  2.2 °C 30.32 in /  1026.6 hPa Calm   1.2 mph /  1.9 km/h 67 % 0.00 in /  0 mm
02:30 46.3 °F /  7.9 °C 35.9 °F /  2.2 °C 30.32 in /  1026.6 hPa Calm     67 % 0.00 in /  0 mm
02:35 46.2 °F /  7.9 °C 36.2 °F /  2.3 °C 30.32 in /  1026.6 hPa NW 0.9 mph /  1.4 km/h 4.0 mph /  6.4 km/h 68 % 0.00 in /  0 mm
02:40 46.0 °F /  7.8 °C 36.0 °F /  2.2 °C 30.32 in /  1026.6 hPa North 0.9 mph /  1.4 km/h 3.5 mph /  5.6 km/h 68 % 0.00 in /  0 mm
02:45 45.9 °F /  7.7 °C 35.9 °F /  2.2 °C 30.32 in /  1026.6 hPa Calm     68 % 0.00 in /  0 mm
02:50 45.8 °F /  7.7 °C 35.8 °F /  2.1 °C 30.32 in /  1026.6 hPa Calm     68 % 0.00 in /  0 mm
02:55 45.7 °F /  7.6 °C 35.7 °F /  2.1 °C 30.32 in /  1026.6 hPa WNW 0.6 mph /  1 km/h 4.0 mph /  6.4 km/h 68 % 0.00 in /  0 mm
03:00 45.6 °F /  7.6 °C 35.6 °F /  2 °C 30.32 in /  1026.6 hPa NNW 1.2 mph /  1.9 km/h 3.5 mph /  5.6 km/h 68 % 0.00 in /  0 mm
03:05 45.5 °F /  7.5 °C 35.9 °F /  2.2 °C 30.32 in /  1026.6 hPa NW 1.1 mph /  1.8 km/h 5.0 mph /  8 km/h 69 % 0.00 in /  0 mm
03:10 45.4 °F /  7.4 °C 35.8 °F /  2.1 °C 30.32 in /  1026.6 hPa North 2.0 mph /  3.2 km/h 4.6 mph /  7.4 km/h 69 % 0.00 in /  0 mm
03:15 45.4 °F /  7.4 °C 35.8 °F /  2.1 °C 30.32 in /  1026.6 hPa North 0.2 mph /  0.3 km/h 2.3 mph /  3.7 km/h 69 % 0.00 in /  0 mm
03:20 45.3 °F /  7.4 °C 35.7 °F /  2.1 °C 30.32 in /  1026.6 hPa North 0.1 mph /  0.2 km/h 3.5 mph /  5.6 km/h 69 % 0.00 in /  0 mm
03:25 45.3 °F /  7.4 °C 35.7 °F /  2.1 °C 30.32 in /  1026.6 hPa NNE 2.2 mph /  3.5 km/h 4.0 mph /  6.4 km/h 69 % 0.00 in /  0 mm
03:30 45.3 °F /  7.4 °C 35.7 °F /  2.1 °C 30.32 in /  1026.6 hPa NNE 0.3 mph /  0.5 km/h 1.2 mph /  1.9 km/h 69 % 0.00 in /  0 mm
03:35 45.3 °F /  7.4 °C 36.1 °F /  2.3 °C 30.32 in /  1026.6 hPa Calm   1.0 mph /  1.6 km/h 70 % 0.00 in /  0 mm
03:40 45.3 °F /  7.4 °C 36.1 °F /  2.3 °C 30.32 in /  1026.6 hPa NNW 0.5 mph /  0.8 km/h 2.3 mph /  3.7 km/h 70 % 0.00 in /  0 mm
03:45 45.3 °F /  7.4 °C 36.4 °F /  2.4 °C 30.32 in /  1026.6 hPa North 2.7 mph /  4.3 km/h 3.5 mph /  5.6 km/h 71 % 0.00 in /  0 mm
03:50 45.2 °F /  7.3 °C 36.4 °F /  2.4 °C 30.32 in /  1026.6 hPa Calm     71 % 0.00 in /  0 mm
03:56 45.2 °F /  7.3 °C 36.7 °F /  2.6 °C 30.31 in /  1026.3 hPa Calm   2.0 mph /  3.2 km/h 72 % 0.00 in /  0 mm
04:01 45.1 °F /  7.3 °C 36.6 °F /  2.6 °C 30.32 in /  1026.6 hPa Calm   2.3 mph /  3.7 km/h 72 % 0.00 in /  0 mm
04:06 45.0 °F /  7.2 °C 36.9 °F /  2.7 °C 30.32 in /  1026.6 hPa Calm   1.2 mph /  1.9 km/h 73 % 0.00 in /  0 mm
04:11 44.9 °F /  7.2 °C 37.1 °F /  2.8 °C 30.32 in /  1026.6 hPa Calm     74 % 0.00 in /  0 mm
04:16 44.8 °F /  7.1 °C 37.0 °F /  2.8 °C 30.32 in /  1026.6 hPa North 0.4 mph /  0.6 km/h 1.2 mph /  1.9 km/h 74 % 0.00 in /  0 mm
04:21 44.5 °F /  6.9 °C 37.1 °F /  2.8 °C 30.31 in /  1026.3 hPa Calm     75 % 0.00 in /  0 mm
04:26 44.3 °F /  6.8 °C 36.9 °F /  2.7 °C 30.31 in /  1026.3 hPa North 0.1 mph /  0.2 km/h 1.2 mph /  1.9 km/h 75 % 0.00 in /  0 mm
04:31 44.0 °F /  6.7 °C 36.9 °F /  2.7 °C 30.32 in /  1026.6 hPa Calm   1.2 mph /  1.9 km/h 76 % 0.00 in /  0 mm
04:36 43.8 °F /  6.6 °C 36.7 °F /  2.6 °C 30.31 in /  1026.3 hPa Calm   1.2 mph /  1.9 km/h 76 % 0.00 in /  0 mm
04:41 43.5 °F /  6.4 °C 36.8 °F /  2.7 °C 30.31 in /  1026.3 hPa Calm     77 % 0.00 in /  0 mm
04:46 43.3 °F /  6.3 °C 36.9 °F /  2.7 °C 30.31 in /  1026.3 hPa North 0.5 mph /  0.8 km/h 1.2 mph /  1.9 km/h 78 % 0.00 in /  0 mm
04:48 43.3 °F /  6.3 °C 36.9 °F /  2.7 °C 30.31 in /  1026.3 hPa Calm   1.2 mph /  1.9 km/h 78 % 0.00 in /  0 mm
04:53 43.1 °F /  6.2 °C 37.0 °F /  2.8 °C 30.31 in /  1026.3 hPa North 1.0 mph /  1.6 km/h 2.3 mph /  3.7 km/h 79 % 0.00 in /  0 mm
04:58 42.8 °F /  6 °C 36.7 °F /  2.6 °C 30.32 in /  1026.6 hPa North 0.8 mph /  1.3 km/h 1.2 mph /  1.9 km/h 79 % 0.00 in /  0 mm
05:03 42.6 °F /  5.9 °C 36.9 °F /  2.7 °C 30.32 in /  1026.6 hPa Calm     80 % 0.00 in /  0 mm
05:08 42.5 °F /  5.8 °C 37.1 °F /  2.8 °C 30.32 in /  1026.6 hPa North 0.1 mph /  0.2 km/h 1.2 mph /  1.9 km/h 81 % 0.00 in /  0 mm
05:13 42.3 °F /  5.7 °C 36.9 °F /  2.7 °C 30.32 in /  1026.6 hPa Calm   1.2 mph /  1.9 km/h 81 % 0.00 in /  0 mm
05:18 42.2 °F /  5.7 °C 37.1 °F /  2.8 °C 30.32 in /  1026.6 hPa Calm     82 % 0.00 in /  0 mm
05:23 42.2 °F /  5.7 °C 37.4 °F /  3 °C 30.32 in /  1026.6 hPa North 0.5 mph /  0.8 km/h 2.3 mph /  3.7 km/h 83 % 0.00 in /  0 mm
05:24 42.2 °F /  5.7 °C 37.4 °F /  3 °C 30.32 in /  1026.6 hPa Calm   2.3 mph /  3.7 km/h 83 % 0.00 in /  0 mm
05:29 42.1 °F /  5.6 °C 37.3 °F /  2.9 °C 30.32 in /  1026.6 hPa Calm     83 % 0.00 in /  0 mm
05:34 42.0 °F /  5.6 °C 37.5 °F /  3.1 °C 30.32 in /  1026.6 hPa Calm   1.2 mph /  1.9 km/h 84 % 0.00 in /  0 mm
05:39 42.0 °F /  5.6 °C 37.5 °F /  3.1 °C 30.32 in /  1026.6 hPa Calm     84 % 0.00 in /  0 mm
05:44 41.9 °F /  5.5 °C 37.4 °F /  3 °C 30.32 in /  1026.6 hPa Calm     84 % 0.00 in /  0 mm
05:49 41.8 °F /  5.4 °C 37.3 °F /  2.9 °C 30.33 in /  1027 hPa Calm   1.2 mph /  1.9 km/h 84 % 0.00 in /  0 mm
05:54 41.8 °F /  5.4 °C 37.3 °F /  2.9 °C 30.33 in /  1027 hPa Calm     84 % 0.00 in /  0 mm
05:59 41.7 °F /  5.4 °C 37.2 °F /  2.9 °C 30.33 in /  1027 hPa Calm     84 % 0.00 in /  0 mm
06:04 41.6 °F /  5.3 °C 37.1 °F /  2.8 °C 30.33 in /  1027 hPa Calm     84 % 0.00 in /  0 mm
06:09 41.5 °F /  5.3 °C 37.0 °F /  2.8 °C 30.33 in /  1027 hPa Calm     84 % 0.00 in /  0 mm
06:14 41.4 °F /  5.2 °C 36.9 °F /  2.7 °C 30.34 in /  1027.3 hPa Calm     84 % 0.00 in /  0 mm
06:16 41.3 °F /  5.2 °C 37.1 °F /  2.8 °C 30.34 in /  1027.3 hPa Calm     85 % 0.00 in /  0 mm
06:21 41.2 °F /  5.1 °C 37.0 °F /  2.8 °C 30.34 in /  1027.3 hPa Calm     85 % 0.00 in /  0 mm
06:26 41.1 °F /  5.1 °C 36.9 °F /  2.7 °C 30.34 in /  1027.3 hPa Calm     85 % 0.00 in /  0 mm
06:31 41.1 °F /  5.1 °C 37.2 °F /  2.9 °C 30.34 in /  1027.3 hPa Calm     86 % 0.00 in /  0 mm
06:36 41.0 °F /  5 °C 37.1 °F /  2.8 °C 30.34 in /  1027.3 hPa Calm     86 % 0.00 in /  0 mm
06:41 40.9 °F /  4.9 °C 37.0 °F /  2.8 °C 30.34 in /  1027.3 hPa Calm     86 % 0.00 in /  0 mm
06:46 40.9 °F /  4.9 °C 37.3 °F /  2.9 °C 30.34 in /  1027.3 hPa Calm     87 % 0.00 in /  0 mm
06:51 40.8 °F /  4.9 °C 37.2 °F /  2.9 °C 30.35 in /  1027.7 hPa Calm     87 % 0.00 in /  0 mm
06:56 40.7 °F /  4.8 °C 37.1 °F /  2.8 °C 30.35 in /  1027.7 hPa Calm     87 % 0.00 in /  0 mm
07:02 40.7 °F /  4.8 °C 37.1 °F /  2.8 °C 30.36 in /  1028 hPa North 0.1 mph /  0.2 km/h 1.0 mph /  1.6 km/h 87 % 0.00 in /  0 mm
07:07 40.7 °F /  4.8 °C 37.4 °F /  3 °C 30.36 in /  1028 hPa Calm     88 % 0.00 in /  0 mm
07:12 40.6 °F /  4.8 °C 37.3 °F /  2.9 °C 30.36 in /  1028 hPa Calm     88 % 0.00 in /  0 mm
07:17 40.6 °F /  4.8 °C 37.3 °F /  2.9 °C 30.35 in /  1027.7 hPa Calm     88 % 0.00 in /  0 mm
07:21 40.6 °F /  4.8 °C 37.3 °F /  2.9 °C 30.36 in /  1028 hPa Calm     88 % 0.00 in /  0 mm
07:26 40.6 °F /  4.8 °C 37.3 °F /  2.9 °C 30.36 in /  1028 hPa Calm     88 % 0.00 in /  0 mm
07:32 40.6 °F /  4.8 °C 37.3 °F /  2.9 °C 30.36 in /  1028 hPa Calm     88 % 0.00 in /  0 mm
07:37 40.6 °F /  4.8 °C 37.3 °F /  2.9 °C 30.36 in /  1028 hPa Calm     88 % 0.00 in /  0 mm
07:42 40.6 °F /  4.8 °C 37.6 °F /  3.1 °C 30.36 in /  1028 hPa Calm     89 % 0.00 in /  0 mm
07:47 40.7 °F /  4.8 °C 37.7 °F /  3.2 °C 30.36 in /  1028 hPa Calm     89 % 0.00 in /  0 mm
07:52 40.8 °F /  4.9 °C 37.8 °F /  3.2 °C 30.36 in /  1028 hPa Calm     89 % 0.00 in /  0 mm
07:57 40.9 °F /  4.9 °C 37.9 °F /  3.3 °C 30.37 in /  1028.3 hPa Calm     89 % 0.00 in /  0 mm
08:02 41.0 °F /  5 °C 38.3 °F /  3.5 °C 30.38 in /  1028.7 hPa Calm     90 % 0.00 in /  0 mm
08:07 41.2 °F /  5.1 °C 38.8 °F /  3.8 °C 30.38 in /  1028.7 hPa Calm     91 % 0.00 in /  0 mm
08:12 41.4 °F /  5.2 °C 39.0 °F /  3.9 °C 30.38 in /  1028.7 hPa Calm     91 % 0.00 in /  0 mm
08:17 41.6 °F /  5.3 °C 39.2 °F /  4 °C 30.38 in /  1028.7 hPa Calm     91 % 0.00 in /  0 mm
08:22 41.8 °F /  5.4 °C 39.4 °F /  4.1 °C 30.38 in /  1028.7 hPa Calm     91 % 0.00 in /  0 mm
08:27 42.0 °F /  5.6 °C 39.8 °F /  4.3 °C 30.39 in /  1029 hPa Calm     92 % 0.00 in /  0 mm
08:32 42.2 °F /  5.7 °C 39.8 °F /  4.3 °C 30.39 in /  1029 hPa Calm     91 % 0.00 in /  0 mm
08:37 42.4 °F /  5.8 °C 40.2 °F /  4.6 °C 30.39 in /  1029 hPa Calm     92 % 0.00 in /  0 mm
08:42 42.6 °F /  5.9 °C 40.4 °F /  4.7 °C 30.39 in /  1029 hPa Calm     92 % 0.00 in /  0 mm
08:47 42.8 °F /  6 °C 40.4 °F /  4.7 °C 30.39 in /  1029 hPa Calm     91 % 0.00 in /  0 mm
08:52 43.1 °F /  6.2 °C 40.7 °F /  4.8 °C 30.40 in /  1029.3 hPa Calm     91 % 0.00 in /  0 mm
08:57 43.3 °F /  6.3 °C 40.8 °F /  4.9 °C 30.40 in /  1029.3 hPa Calm     91 % 0.00 in /  0 mm
09:02 43.5 °F /  6.4 °C 41.0 °F /  5 °C 30.39 in /  1029 hPa Calm     91 % 0.00 in /  0 mm
09:07 43.8 °F /  6.6 °C 41.3 °F /  5.2 °C 30.40 in /  1029.3 hPa Calm     91 % 0.00 in /  0 mm
09:12 44.1 °F /  6.7 °C 41.6 °F /  5.3 °C 30.40 in /  1029.3 hPa Calm     91 % 0.00 in /  0 mm
09:17 44.5 °F /  6.9 °C 42.0 °F /  5.6 °C 30.40 in /  1029.3 hPa Calm     91 % 0.00 in /  0 mm
09:22 44.7 °F /  7.1 °C 42.2 °F /  5.7 °C 30.40 in /  1029.3 hPa Calm     91 % 0.00 in /  0 mm
09:27 45.1 °F /  7.3 °C 42.3 °F /  5.7 °C 30.40 in /  1029.3 hPa Calm     90 % 0.00 in /  0 mm
09:32 45.5 °F /  7.5 °C 42.4 °F /  5.8 °C 30.40 in /  1029.3 hPa Calm     89 % 0.00 in /  0 mm
09:37 45.9 °F /  7.7 °C 42.5 °F /  5.8 °C 30.40 in /  1029.3 hPa Calm   1.2 mph /  1.9 km/h 88 % 0.00 in /  0 mm
09:42 46.2 °F /  7.9 °C 42.5 °F /  5.8 °C 30.40 in /  1029.3 hPa SE 0.6 mph /  1 km/h 3.5 mph /  5.6 km/h 87 % 0.00 in /  0 mm
09:47 46.6 °F /  8.1 °C 42.6 °F /  5.9 °C 30.40 in /  1029.3 hPa Calm     86 % 0.00 in /  0 mm
09:52 46.9 °F /  8.3 °C 42.9 °F /  6.1 °C 30.40 in /  1029.3 hPa Calm     86 % 0.00 in /  0 mm
09:57 47.2 °F /  8.4 °C 42.6 °F /  5.9 °C 30.40 in /  1029.3 hPa Calm     84 % 0.00 in /  0 mm
10:02 47.5 °F /  8.6 °C 42.9 °F /  6.1 °C 30.40 in /  1029.3 hPa Calm     84 % 0.00 in /  0 mm
10:07 47.8 °F /  8.8 °C 43.2 °F /  6.2 °C 30.39 in /  1029 hPa Calm     84 % 0.00 in /  0 mm
10:12 48.1 °F /  8.9 °C 43.5 °F /  6.4 °C 30.39 in /  1029 hPa Calm     84 % 0.00 in /  0 mm
10:17 48.3 °F /  9.1 °C 43.4 °F /  6.3 °C 30.39 in /  1029 hPa Calm     83 % 0.00 in /  0 mm
10:22 48.7 °F /  9.3 °C 43.5 °F /  6.4 °C 30.39 in /  1029 hPa Calm     82 % 0.00 in /  0 mm
10:27 48.9 °F /  9.4 °C 43.6 °F /  6.4 °C 30.39 in /  1029 hPa Calm     82 % 0.00 in /  0 mm
10:32 49.2 °F /  9.6 °C 43.6 °F /  6.4 °C 30.39 in /  1029 hPa Calm     81 % 0.00 in /  0 mm
10:38 49.4 °F /  9.7 °C 43.5 °F /  6.4 °C 30.39 in /  1029 hPa Calm     80 % 0.00 in /  0 mm
10:43 49.6 °F /  9.8 °C 43.7 °F /  6.5 °C 30.40 in /  1029.3 hPa Calm     80 % 0.00 in /  0 mm
10:48 49.9 °F /  9.9 °C 43.6 °F /  6.4 °C 30.39 in /  1029 hPa Calm     79 % 0.00 in /  0 mm
10:53 50.1 °F /  10.1 °C 43.8 °F /  6.6 °C 30.39 in /  1029 hPa Calm     79 % 0.00 in /  0 mm
10:58 50.3 °F /  10.2 °C 43.4 °F /  6.3 °C 30.40 in /  1029.3 hPa Calm     77 % 0.00 in /  0 mm
11:03 50.6 °F /  10.3 °C 42.6 °F /  5.9 °C 30.40 in /  1029.3 hPa SE 0.8 mph /  1.3 km/h 2.3 mph /  3.7 km/h 74 % 0.00 in /  0 mm
11:08 50.9 °F /  10.5 °C 42.6 °F /  5.9 °C 30.40 in /  1029.3 hPa Calm     73 % 0.00 in /  0 mm
11:13 51.2 °F /  10.7 °C 42.5 °F /  5.8 °C 30.40 in /  1029.3 hPa Calm     72 % 0.00 in /  0 mm
11:18 51.4 °F /  10.8 °C 43.0 °F /  6.1 °C 30.40 in /  1029.3 hPa Calm     73 % 0.00 in /  0 mm
11:23 51.5 °F /  10.8 °C 43.1 °F /  6.2 °C 30.40 in /  1029.3 hPa Calm     73 % 0.00 in /  0 mm
11:28 51.7 °F /  10.9 °C 44.0 °F /  6.7 °C 30.39 in /  1029 hPa Calm     75 % 0.00 in /  0 mm
11:33 51.9 °F /  11.1 °C 43.2 °F /  6.2 °C 30.39 in /  1029 hPa Calm     72 % 0.00 in /  0 mm
11:38 52.0 °F /  11.1 °C 42.5 °F /  5.8 °C 30.39 in /  1029 hPa Calm     70 % 0.00 in /  0 mm
11:43 52.1 °F /  11.2 °C 43.0 °F /  6.1 °C 30.39 in /  1029 hPa Calm     71 % 0.00 in /  0 mm
11:48 52.3 °F /  11.3 °C 43.9 °F /  6.6 °C 30.39 in /  1029 hPa Calm     73 % 0.00 in /  0 mm
11:53 52.4 °F /  11.3 °C 44.0 °F /  6.7 °C 30.39 in /  1029 hPa Calm     73 % 0.00 in /  0 mm
11:58 52.7 °F /  11.5 °C 43.9 °F /  6.6 °C 30.38 in /  1028.7 hPa Calm     72 % 0.00 in /  0 mm
12:03 52.9 °F /  11.6 °C 43.0 °F /  6.1 °C 30.38 in /  1028.7 hPa Calm     69 % 0.00 in /  0 mm
12:08 53.2 °F /  11.8 °C 43.7 °F /  6.5 °C 30.38 in /  1028.7 hPa Calm     70 % 0.00 in /  0 mm
12:13 53.4 °F /  11.9 °C 44.2 °F /  6.8 °C 30.38 in /  1028.7 hPa Calm     71 % 0.00 in /  0 mm
12:18 53.6 °F /  12 °C 44.4 °F /  6.9 °C 30.38 in /  1028.7 hPa Calm     71 % 0.00 in /  0 mm
12:23 53.8 °F /  12.1 °C 45.0 °F /  7.2 °C 30.38 in /  1028.7 hPa Calm     72 % 0.00 in /  0 mm
12:28 54.1 °F /  12.3 °C 46.0 °F /  7.8 °C 30.38 in /  1028.7 hPa Calm     74 % 0.00 in /  0 mm
12:33 54.2 °F /  12.3 °C 46.1 °F /  7.8 °C 30.38 in /  1028.7 hPa Calm     74 % 0.00 in /  0 mm
12:38 54.4 °F /  12.4 °C 45.2 °F /  7.3 °C 30.37 in /  1028.3 hPa Calm     71 % 0.00 in /  0 mm
12:43 54.6 °F /  12.6 °C 45.4 °F /  7.4 °C 30.38 in /  1028.7 hPa Calm     71 % 0.00 in /  0 mm
12:48 54.7 °F /  12.6 °C 44.7 °F /  7.1 °C 30.37 in /  1028.3 hPa Calm     69 % 0.00 in /  0 mm
12:53 54.8 °F /  12.7 °C 45.2 °F /  7.3 °C 30.37 in /  1028.3 hPa Calm     70 % 0.00 in /  0 mm
12:58 54.8 °F /  12.7 °C 44.0 °F /  6.7 °C 30.37 in /  1028.3 hPa Calm     67 % 0.00 in /  0 mm
13:04 54.9 °F /  12.7 °C 44.5 °F /  6.9 °C 30.37 in /  1028.3 hPa SE 0.1 mph /  0.2 km/h   68 % 0.00 in /  0 mm
13:09 54.9 °F /  12.7 °C 44.1 °F /  6.7 °C 30.38 in /  1028.7 hPa SE 0.4 mph /  0.6 km/h 2.3 mph /  3.7 km/h 67 % 0.00 in /  0 mm
13:14 54.9 °F /  12.7 °C 44.5 °F /  6.9 °C 30.37 in /  1028.3 hPa Calm   1.2 mph /  1.9 km/h 68 % 0.00 in /  0 mm
13:19 55.0 °F /  12.8 °C 45.4 °F /  7.4 °C 30.37 in /  1028.3 hPa Calm     70 % 0.00 in /  0 mm
13:24 55.0 °F /  12.8 °C 45.0 °F /  7.2 °C 30.37 in /  1028.3 hPa Calm     69 % 0.00 in /  0 mm
13:29 55.0 °F /  12.8 °C 45.0 °F /  7.2 °C 30.37 in /  1028.3 hPa Calm   1.2 mph /  1.9 km/h 69 % 0.00 in /  0 mm
13:34 55.0 °F /  12.8 °C 45.0 °F /  7.2 °C 30.38 in /  1028.7 hPa Calm     69 % 0.00 in /  0 mm
13:39 55.0 °F /  12.8 °C 45.0 °F /  7.2 °C 30.37 in /  1028.3 hPa NNE 1.1 mph /  1.8 km/h 3.5 mph /  5.6 km/h 69 % 0.00 in /  0 mm
13:44 55.0 °F /  12.8 °C 44.6 °F /  7 °C 30.37 in /  1028.3 hPa NNE 0.1 mph /  0.2 km/h 1.2 mph /  1.9 km/h 68 % 0.00 in /  0 mm
13:49 55.0 °F /  12.8 °C 44.2 °F /  6.8 °C 30.37 in /  1028.3 hPa ENE 1.3 mph /  2.1 km/h 3.5 mph /  5.6 km/h 67 % 0.00 in /  0 mm
13:54 55.0 °F /  12.8 °C 43.4 °F /  6.3 °C 30.37 in /  1028.3 hPa Calm     65 % 0.00 in /  0 mm
13:59 55.0 °F /  12.8 °C 43.8 °F /  6.6 °C 30.37 in /  1028.3 hPa Calm   3.5 mph /  5.6 km/h 66 % 0.00 in /  0 mm
14:05 55.1 °F /  12.8 °C 43.5 °F /  6.4 °C 30.37 in /  1028.3 hPa NNE 0.4 mph /  0.6 km/h 1.2 mph /  1.9 km/h 65 % 0.00 in /  0 mm
14:10 55.1 °F /  12.8 °C 44.3 °F /  6.8 °C 30.37 in /  1028.3 hPa NE 0.4 mph /  0.6 km/h 2.3 mph /  3.7 km/h 67 % 0.00 in /  0 mm
14:15 55.3 °F /  12.9 °C 44.5 °F /  6.9 °C 30.37 in /  1028.3 hPa NE 0.8 mph /  1.3 km/h 2.3 mph /  3.7 km/h 67 % 0.00 in /  0 mm
14:20 55.3 °F /  12.9 °C 43.7 °F /  6.5 °C 30.37 in /  1028.3 hPa Calm   1.2 mph /  1.9 km/h 65 % 0.00 in /  0 mm
14:25 55.4 °F /  13 °C 44.2 °F /  6.8 °C 30.37 in /  1028.3 hPa NE 0.4 mph /  0.6 km/h 1.2 mph /  1.9 km/h 66 % 0.00 in /  0 mm
14:30 55.4 °F /  13 °C 44.2 °F /  6.8 °C 30.37 in /  1028.3 hPa NE 0.4 mph /  0.6 km/h 1.2 mph /  1.9 km/h 66 % 0.00 in /  0 mm
14:35 55.5 °F /  13.1 °C 44.7 °F /  7.1 °C 30.37 in /  1028.3 hPa Calm     67 % 0.00 in /  0 mm
14:40 55.5 °F /  13.1 °C 45.5 °F /  7.5 °C 30.36 in /  1028 hPa Calm     69 % 0.00 in /  0 mm
14:45 55.5 °F /  13.1 °C 45.5 °F /  7.5 °C 30.36 in /  1028 hPa Calm     69 % 0.00 in /  0 mm
14:50 55.5 °F /  13.1 °C 45.1 °F /  7.3 °C 30.36 in /  1028 hPa NE 0.4 mph /  0.6 km/h 2.3 mph /  3.7 km/h 68 % 0.00 in /  0 mm
14:55 55.4 °F /  13 °C 45.0 °F /  7.2 °C 30.36 in /  1028 hPa Calm     68 % 0.00 in /  0 mm
15:00 55.4 °F /  13 °C 45.8 °F /  7.7 °C 30.36 in /  1028 hPa NE 1.2 mph /  1.9 km/h 3.5 mph /  5.6 km/h 70 % 0.00 in /  0 mm
15:05 55.4 °F /  13 °C 46.5 °F /  8.1 °C 30.36 in /  1028 hPa ENE 0.5 mph /  0.8 km/h 2.3 mph /  3.7 km/h 72 % 0.00 in /  0 mm
15:10 55.5 °F /  13.1 °C 45.5 °F /  7.5 °C 30.36 in /  1028 hPa Calm     69 % 0.00 in /  0 mm
15:15 55.6 °F /  13.1 °C 45.6 °F /  7.6 °C 30.36 in /  1028 hPa Calm     69 % 0.00 in /  0 mm
15:20 55.7 °F /  13.2 °C 46.4 °F /  8 °C 30.36 in /  1028 hPa ENE 0.1 mph /  0.2 km/h 1.2 mph /  1.9 km/h 71 % 0.00 in /  0 mm
15:25 55.9 °F /  13.3 °C 46.3 °F /  7.9 °C 30.36 in /  1028 hPa ENE 0.1 mph /  0.2 km/h 1.2 mph /  1.9 km/h 70 % 0.00 in /  0 mm
15:30 56.0 °F /  13.3 °C 47.8 °F /  8.8 °C 30.36 in /  1028 hPa NE 0.1 mph /  0.2 km/h 1.2 mph /  1.9 km/h 74 % 0.00 in /  0 mm
15:35 56.2 °F /  13.4 °C 48.0 °F /  8.9 °C 30.36 in /  1028 hPa NE 0.4 mph /  0.6 km/h 1.2 mph /  1.9 km/h 74 % 0.00 in /  0 mm
15:40 56.3 °F /  13.5 °C 48.1 °F /  8.9 °C 30.36 in /  1028 hPa NE 0.5 mph /  0.8 km/h 1.2 mph /  1.9 km/h 74 % 0.00 in /  0 mm
15:45 56.3 °F /  13.5 °C 48.1 °F /  8.9 °C 30.36 in /  1028 hPa ENE 0.3 mph /  0.5 km/h 1.2 mph /  1.9 km/h 74 % 0.00 in /  0 mm
15:50 56.3 °F /  13.5 °C 48.5 °F /  9.2 °C 30.36 in /  1028 hPa ENE 0.7 mph /  1.1 km/h 3.5 mph /  5.6 km/h 75 % 0.00 in /  0 mm
15:55 56.2 °F /  13.4 °C 48.4 °F /  9.1 °C 30.35 in /  1027.7 hPa ENE 0.6 mph /  1 km/h 3.5 mph /  5.6 km/h 75 % 0.00 in /  0 mm
16:00 56.2 °F /  13.4 °C 48.7 °F /  9.3 °C 30.35 in /  1027.7 hPa ENE 0.2 mph /  0.3 km/h 1.2 mph /  1.9 km/h 76 % 0.00 in /  0 mm
16:05 56.1 °F /  13.4 °C 48.6 °F /  9.2 °C 30.35 in /  1027.7 hPa ENE 1.3 mph /  2.1 km/h 1.3 mph /  2.1 km/h 76 % 0.00 in /  0 mm
16:10 56.0 °F /  13.3 °C 48.5 °F /  9.2 °C 30.35 in /  1027.7 hPa ENE 0.4 mph /  0.6 km/h 1.2 mph /  1.9 km/h 76 % 0.00 in /  0 mm
16:16 56.0 °F /  13.3 °C 48.9 °F /  9.4 °C 30.35 in /  1027.7 hPa ENE 1.0 mph /  1.6 km/h 5.0 mph /  8 km/h 77 % 0.00 in /  0 mm
16:21 55.9 °F /  13.3 °C 49.1 °F /  9.5 °C 30.34 in /  1027.3 hPa ENE 1.0 mph /  1.6 km/h 4.0 mph /  6.4 km/h 78 % 0.00 in /  0 mm
16:26 55.8 °F /  13.2 °C 48.7 °F /  9.3 °C 30.35 in /  1027.7 hPa Calm   1.0 mph /  1.6 km/h 77 % 0.00 in /  0 mm
16:31 55.8 °F /  13.2 °C 48.0 °F /  8.9 °C 30.35 in /  1027.7 hPa Calm   1.0 mph /  1.6 km/h 75 % 0.00 in /  0 mm
16:36 55.8 °F /  13.2 °C 48.7 °F /  9.3 °C 30.35 in /  1027.7 hPa East 1.0 mph /  1.6 km/h 1.0 mph /  1.6 km/h 77 % 0.00 in /  0 mm
16:41 55.7 °F /  13.2 °C 47.9 °F /  8.8 °C 30.35 in /  1027.7 hPa Calm   1.2 mph /  1.9 km/h 75 % 0.00 in /  0 mm
16:46 55.7 °F /  13.2 °C 48.2 °F /  9 °C 30.35 in /  1027.7 hPa Calm   1.0 mph /  1.6 km/h 76 % 0.00 in /  0 mm
16:51 55.6 °F /  13.1 °C 48.5 °F /  9.2 °C 30.34 in /  1027.3 hPa Calm   2.0 mph /  3.2 km/h 77 % 0.00 in /  0 mm
16:56 55.5 °F /  13.1 °C 48.1 °F /  8.9 °C 30.35 in /  1027.7 hPa Calm   2.0 mph /  3.2 km/h 76 % 0.00 in /  0 mm
17:01 55.4 °F /  13 °C 48.3 °F /  9.1 °C 30.34 in /  1027.3 hPa Calm     77 % 0.00 in /  0 mm
17:06 55.3 °F /  12.9 °C 48.2 °F /  9 °C 30.34 in /  1027.3 hPa East 0.1 mph /  0.2 km/h 1.2 mph /  1.9 km/h 77 % 0.00 in /  0 mm
17:11 55.2 °F /  12.9 °C 48.1 °F /  8.9 °C 30.34 in /  1027.3 hPa Calm   1.2 mph /  1.9 km/h 77 % 0.00 in /  0 mm
17:16 55.1 °F /  12.8 °C 48.0 °F /  8.9 °C 30.34 in /  1027.3 hPa Calm     77 % 0.00 in /  0 mm
17:21 55.0 °F /  12.8 °C 47.9 °F /  8.8 °C 30.34 in /  1027.3 hPa Calm     77 % 0.00 in /  0 mm
17:26 54.9 °F /  12.7 °C 47.5 °F /  8.6 °C 30.34 in /  1027.3 hPa Calm   1.0 mph /  1.6 km/h 76 % 0.00 in /  0 mm
17:31 54.8 °F /  12.7 °C 47.0 °F /  8.3 °C 30.33 in /  1027 hPa Calm     75 % 0.00 in /  0 mm
17:36 54.6 °F /  12.6 °C 46.8 °F /  8.2 °C 30.34 in /  1027.3 hPa Calm     75 % 0.00 in /  0 mm
17:41 54.6 °F /  12.6 °C 46.5 °F /  8.1 °C 30.34 in /  1027.3 hPa Calm     74 % 0.00 in /  0 mm
17:46 54.5 °F /  12.5 °C 46.7 °F /  8.2 °C 30.34 in /  1027.3 hPa Calm     75 % 0.00 in /  0 mm
17:51 54.3 °F /  12.4 °C 46.2 °F /  7.9 °C 30.34 in /  1027.3 hPa Calm     74 % 0.00 in /  0 mm
17:56 54.2 °F /  12.3 °C 45.7 °F /  7.6 °C 30.34 in /  1027.3 hPa Calm     73 % 0.00 in /  0 mm
18:01 54.0 °F /  12.2 °C 45.5 °F /  7.5 °C 30.34 in /  1027.3 hPa Calm     73 % 0.00 in /  0 mm
18:06 53.9 °F /  12.2 °C 45.8 °F /  7.7 °C 30.34 in /  1027.3 hPa Calm     74 % 0.00 in /  0 mm
18:11 53.7 °F /  12.1 °C 45.6 °F /  7.6 °C 30.34 in /  1027.3 hPa Calm   1.2 mph /  1.9 km/h 74 % 0.00 in /  0 mm
18:16 53.5 °F /  11.9 °C 46.1 °F /  7.8 °C 30.34 in /  1027.3 hPa Calm   1.2 mph /  1.9 km/h 76 % 0.00 in /  0 mm
18:21 53.4 °F /  11.9 °C 46.0 °F /  7.8 °C 30.34 in /  1027.3 hPa Calm     76 % 0.00 in /  0 mm
18:26 53.2 °F /  11.8 °C 45.8 °F /  7.7 °C 30.33 in /  1027 hPa Calm     76 % 0.00 in /  0 mm
18:31 53.1 °F /  11.7 °C 45.7 °F /  7.6 °C 30.34 in /  1027.3 hPa Calm     76 % 0.00 in /  0 mm
18:36 53.0 °F /  11.7 °C 45.6 °F /  7.6 °C 30.34 in /  1027.3 hPa Calm     76 % 0.00 in /  0 mm
18:41 52.9 °F /  11.6 °C 45.5 °F /  7.5 °C 30.35 in /  1027.7 hPa Calm     76 % 0.00 in /  0 mm
18:46 52.8 °F /  11.6 °C 45.4 °F /  7.4 °C 30.35 in /  1027.7 hPa Calm     76 % 0.00 in /  0 mm
18:51 52.7 °F /  11.5 °C 45.3 °F /  7.4 °C 30.35 in /  1027.7 hPa Calm     76 % 0.00 in /  0 mm
18:56 52.6 °F /  11.4 °C 45.2 °F /  7.3 °C 30.35 in /  1027.7 hPa Calm     76 % 0.00 in /  0 mm
19:01 52.5 °F /  11.4 °C 45.2 °F /  7.3 °C 30.35 in /  1027.7 hPa Calm     76 % 0.00 in /  0 mm
19:06 52.4 °F /  11.3 °C 45.4 °F /  7.4 °C 30.35 in /  1027.7 hPa Calm     77 % 0.00 in /  0 mm
19:11 52.4 °F /  11.3 °C 45.7 °F /  7.6 °C 30.35 in /  1027.7 hPa Calm     78 % 0.00 in /  0 mm
19:16 52.3 °F /  11.3 °C 46.0 °F /  7.8 °C 30.35 in /  1027.7 hPa Calm     79 % 0.00 in /  0 mm
19:21 52.2 °F /  11.2 °C 45.9 °F /  7.7 °C 30.35 in /  1027.7 hPa Calm   1.2 mph /  1.9 km/h 79 % 0.00 in /  0 mm
19:27 52.1 °F /  11.2 °C 46.1 °F /  7.8 °C 30.35 in /  1027.7 hPa Calm     80 % 0.00 in /  0 mm
19:32 52.0 °F /  11.1 °C 46.0 °F /  7.8 °C 30.35 in /  1027.7 hPa Calm   1.0 mph /  1.6 km/h 80 % 0.00 in /  0 mm
19:37 51.9 °F /  11.1 °C 45.9 °F /  7.7 °C 30.35 in /  1027.7 hPa Calm     80 % 0.00 in /  0 mm
19:42 51.8 °F /  11 °C 45.8 °F /  7.7 °C 30.35 in /  1027.7 hPa Calm     80 % 0.00 in /  0 mm
19:47 51.7 °F /  10.9 °C 45.7 °F /  7.6 °C 30.35 in /  1027.7 hPa Calm     80 % 0.00 in /  0 mm
19:52 51.6 °F /  10.9 °C 45.6 °F /  7.6 °C 30.35 in /  1027.7 hPa Calm     80 % 0.00 in /  0 mm
19:57 51.5 °F /  10.8 °C 45.5 °F /  7.5 °C 30.35 in /  1027.7 hPa Calm     80 % 0.00 in /  0 mm
20:02 51.4 °F /  10.8 °C 45.4 °F /  7.4 °C 30.35 in /  1027.7 hPa Calm   1.2 mph /  1.9 km/h 80 % 0.00 in /  0 mm
20:07 51.4 °F /  10.8 °C 45.8 °F /  7.7 °C 30.35 in /  1027.7 hPa East 0.7 mph /  1.1 km/h 2.0 mph /  3.2 km/h 81 % 0.00 in /  0 mm
20:12 51.4 °F /  10.8 °C 45.8 °F /  7.7 °C 30.35 in /  1027.7 hPa East 1.3 mph /  2.1 km/h 3.5 mph /  5.6 km/h 81 % 0.00 in /  0 mm
20:17 51.4 °F /  10.8 °C 45.8 °F /  7.7 °C 30.35 in /  1027.7 hPa SE 2.1 mph /  3.4 km/h 3.5 mph /  5.6 km/h 81 % 0.00 in /  0 mm
20:22 51.5 °F /  10.8 °C 45.9 °F /  7.7 °C 30.35 in /  1027.7 hPa SE 0.8 mph /  1.3 km/h 2.3 mph /  3.7 km/h 81 % 0.00 in /  0 mm
20:27 51.6 °F /  10.9 °C 46.0 °F /  7.8 °C 30.34 in /  1027.3 hPa SE 0.7 mph /  1.1 km/h 2.3 mph /  3.7 km/h 81 % 0.00 in /  0 mm
20:32 51.7 °F /  10.9 °C 45.7 °F /  7.6 °C 30.34 in /  1027.3 hPa Calm   1.0 mph /  1.6 km/h 80 % 0.00 in /  0 mm
20:37 51.9 °F /  11.1 °C 45.9 °F /  7.7 °C 30.34 in /  1027.3 hPa SE 0.5 mph /  0.8 km/h 2.3 mph /  3.7 km/h 80 % 0.00 in /  0 mm
20:42 52.0 °F /  11.1 °C 46.0 °F /  7.8 °C 30.34 in /  1027.3 hPa Calm   2.3 mph /  3.7 km/h 80 % 0.00 in /  0 mm
20:47 52.2 °F /  11.2 °C 46.2 °F /  7.9 °C 30.33 in /  1027 hPa SE 0.7 mph /  1.1 km/h 3.5 mph /  5.6 km/h 80 % 0.00 in /  0 mm
20:52 52.3 °F /  11.3 °C 46.3 °F /  7.9 °C 30.33 in /  1027 hPa SE 0.8 mph /  1.3 km/h 2.3 mph /  3.7 km/h 80 % 0.00 in /  0 mm
20:57 52.4 °F /  11.3 °C 46.1 °F /  7.8 °C 30.33 in /  1027 hPa SE 0.9 mph /  1.4 km/h 3.5 mph /  5.6 km/h 79 % 0.00 in /  0 mm
21:02 52.5 °F /  11.4 °C 46.2 °F /  7.9 °C 30.33 in /  1027 hPa SE 0.5 mph /  0.8 km/h 3.0 mph /  4.8 km/h 79 % 0.00 in /  0 mm
21:07 52.5 °F /  11.4 °C 46.2 °F /  7.9 °C 30.33 in /  1027 hPa Calm   2.3 mph /  3.7 km/h 79 % 0.00 in /  0 mm
21:12 52.5 °F /  11.4 °C 46.2 °F /  7.9 °C 30.34 in /  1027.3 hPa Calm   1.0 mph /  1.6 km/h 79 % 0.00 in /  0 mm
21:17 52.5 °F /  11.4 °C 46.5 °F /  8.1 °C 30.34 in /  1027.3 hPa SE 0.7 mph /  1.1 km/h 2.3 mph /  3.7 km/h 80 % 0.00 in /  0 mm
21:22 52.4 °F /  11.3 °C 46.4 °F /  8 °C 30.34 in /  1027.3 hPa SE 0.2 mph /  0.3 km/h 1.2 mph /  1.9 km/h 80 % 0.00 in /  0 mm
21:27 52.4 °F /  11.3 °C 46.4 °F /  8 °C 30.34 in /  1027.3 hPa Calm     80 % 0.00 in /  0 mm
21:30 52.4 °F /  11.3 °C 46.4 °F /  8 °C 30.34 in /  1027.3 hPa SE 0.1 mph /  0.2 km/h 1.2 mph /  1.9 km/h 80 % 0.00 in /  0 mm
21:35 52.3 °F /  11.3 °C 46.3 °F /  7.9 °C 30.34 in /  1027.3 hPa Calm     80 % 0.00 in /  0 mm
21:40 52.3 °F /  11.3 °C 46.3 °F /  7.9 °C 30.34 in /  1027.3 hPa SE 0.2 mph /  0.3 km/h 1.2 mph /  1.9 km/h 80 % 0.00 in /  0 mm
21:45 52.2 °F /  11.2 °C 46.2 °F /  7.9 °C 30.34 in /  1027.3 hPa SE 0.1 mph /  0.2 km/h 1.2 mph /  1.9 km/h 80 % 0.00 in /  0 mm
21:50 52.1 °F /  11.2 °C 46.1 °F /  7.8 °C 30.33 in /  1027 hPa Calm     80 % 0.00 in /  0 mm
21:55 52.1 °F /  11.2 °C 46.4 °F /  8 °C 30.33 in /  1027 hPa Calm     81 % 0.00 in /  0 mm
22:00 52.0 °F /  11.1 °C 46.3 °F /  7.9 °C 30.33 in /  1027 hPa Calm     81 % 0.00 in /  0 mm
22:05 51.9 °F /  11.1 °C 46.3 °F /  7.9 °C 30.33 in /  1027 hPa Calm     81 % 0.00 in /  0 mm
22:10 51.9 °F /  11.1 °C 46.3 °F /  7.9 °C 30.33 in /  1027 hPa Calm     81 % 0.00 in /  0 mm
22:15 51.8 °F /  11 °C 46.5 °F /  8.1 °C 30.33 in /  1027 hPa Calm     82 % 0.00 in /  0 mm
22:20 51.7 °F /  10.9 °C 46.4 °F /  8 °C 30.33 in /  1027 hPa Calm     82 % 0.00 in /  0 mm
22:25 51.6 °F /  10.9 °C 46.3 °F /  7.9 °C 30.33 in /  1027 hPa Calm     82 % 0.00 in /  0 mm
22:30 51.6 °F /  10.9 °C 46.6 °F /  8.1 °C 30.33 in /  1027 hPa Calm     83 % 0.00 in /  0 mm
22:35 51.6 °F /  10.9 °C 47.2 °F /  8.4 °C 30.34 in /  1027.3 hPa Calm     85 % 0.00 in /  0 mm
22:40 51.6 °F /  10.9 °C 47.2 °F /  8.4 °C 30.33 in /  1027 hPa Calm     85 % 0.00 in /  0 mm
22:45 51.5 °F /  10.8 °C 47.1 °F /  8.4 °C 30.33 in /  1027 hPa Calm     85 % 0.00 in /  0 mm
22:50 51.5 °F /  10.8 °C 47.5 °F /  8.6 °C 30.32 in /  1026.6 hPa Calm     86 % 0.00 in /  0 mm
22:55 51.5 °F /  10.8 °C 47.5 °F /  8.6 °C 30.32 in /  1026.6 hPa Calm     86 % 0.00 in /  0 mm
23:00 51.4 °F /  10.8 °C 47.4 °F /  8.6 °C 30.33 in /  1027 hPa Calm     86 % 0.00 in /  0 mm
23:05 51.4 °F /  10.8 °C 47.4 °F /  8.6 °C 30.32 in /  1026.6 hPa Calm     86 % 0.00 in /  0 mm
23:10 51.3 °F /  10.7 °C 47.3 °F /  8.5 °C 30.32 in /  1026.6 hPa Calm     86 % 0.00 in /  0 mm
23:15 51.3 °F /  10.7 °C 47.3 °F /  8.5 °C 30.32 in /  1026.6 hPa Calm     86 % 0.00 in /  0 mm
23:20 51.2 °F /  10.7 °C 47.2 °F /  8.4 °C 30.32 in /  1026.6 hPa Calm     86 % 0.00 in /  0 mm
23:24 51.2 °F /  10.7 °C 47.2 °F /  8.4 °C 30.32 in /  1026.6 hPa Calm     86 % 0.00 in /  0 mm
23:30 51.1 °F /  10.6 °C 47.4 °F /  8.6 °C 30.32 in /  1026.6 hPa Calm     87 % 0.00 in /  0 mm
23:35 51.0 °F /  10.6 °C 47.3 °F /  8.5 °C 30.32 in /  1026.6 hPa Calm     87 % 0.00 in /  0 mm
23:39 51.0 °F /  10.6 °C 47.6 °F /  8.7 °C 30.32 in /  1026.6 hPa Calm     88 % 0.00 in /  0 mm
23:44 51.0 °F /  10.6 °C 47.6 °F /  8.7 °C 30.32 in /  1026.6 hPa Calm     88 % 0.00 in /  0 mm
23:50 51.1 °F /  10.6 °C 48.0 °F /  8.9 °C 30.32 in /  1026.6 hPa SE 0.2 mph /  0.3 km/h 2.0 mph /  3.2 km/h 89 % 0.00 in /  0 mm
23:55 51.1 °F /  10.6 °C 48.3 °F /  9.1 °C 30.32 in /  1026.6 hPa SE 1.1 mph /  1.8 km/h 3.5 mph /  5.6 km/h 90 % 0.00 in /  0 mm
Crab Meadow Weather
Compliments of Weather Underground - 3 mb

Script developed by  Jim McMurry - jmcmurry@mwt.net Adapted for the template by  Wim van der Kuil - Leuven-Template.eu

Lightning: At any given moment, there are about 1,800 thunderstorms happening around the world. Approximately 100 lightning bolts strike the earth every second.